sensor_id;sensor_type;location;lat;lon;timestamp;pressure;altitude;pressure_sealevel;temperature;humidity
63399;BME280;49533;-34.520;150.798;2024-03-29T00:00:17;101750.81;;;23.95;57.84
63399;BME280;49533;-34.520;150.798;2024-03-29T00:02:44;101773.81;;;24.18;58.02
63399;BME280;49533;-34.520;150.798;2024-03-29T00:05:11;101678.56;;;23.68;57.51
63399;BME280;49533;-34.520;150.798;2024-03-29T00:07:38;101764.03;;;24.24;57.63
63399;BME280;49533;-34.520;150.798;2024-03-29T00:10:06;101709.19;;;23.95;57.57
63399;BME280;49533;-34.520;150.798;2024-03-29T00:12:33;101697.84;;;23.80;57.52
63399;BME280;49533;-34.520;150.798;2024-03-29T00:15:00;101737.72;;;24.18;57.44
63399;BME280;49533;-34.520;150.798;2024-03-29T00:17:27;101685.81;;;23.96;57.41
63399;BME280;49533;-34.520;150.798;2024-03-29T00:19:54;101703.94;;;24.13;57.86
63399;BME280;49533;-34.520;150.798;2024-03-29T00:22:21;101761.75;;;24.53;57.53
63399;BME280;49533;-34.520;150.798;2024-03-29T00:24:48;101678.34;;;24.00;57.38
63399;BME280;49533;-34.520;150.798;2024-03-29T00:27:15;101765.31;;;24.54;57.45
63399;BME280;49533;-34.520;150.798;2024-03-29T00:29:42;101702.88;;;24.21;57.44
63399;BME280;49533;-34.520;150.798;2024-03-29T00:32:12;101758.19;;;24.52;56.91
63399;BME280;49533;-34.520;150.798;2024-03-29T00:34:40;101755.00;;;24.54;57.18
63399;BME280;49533;-34.520;150.798;2024-03-29T00:37:07;101752.97;;;24.51;56.54
63399;BME280;49533;-34.520;150.798;2024-03-29T00:39:34;101746.19;;;24.48;56.41
63399;BME280;49533;-34.520;150.798;2024-03-29T00:42:01;101754.22;;;24.54;56.70
63399;BME280;49533;-34.520;150.798;2024-03-29T00:44:28;101748.34;;;24.59;56.65
63399;BME280;49533;-34.520;150.798;2024-03-29T00:46:55;101749.19;;;24.63;56.26
63399;BME280;49533;-34.520;150.798;2024-03-29T00:49:22;101742.09;;;24.65;56.38
63399;BME280;49533;-34.520;150.798;2024-03-29T00:51:49;101739.34;;;24.69;55.94
63399;BME280;49533;-34.520;150.798;2024-03-29T00:54:17;101741.03;;;24.73;55.64
63399;BME280;49533;-34.520;150.798;2024-03-29T00:56:45;101698.59;;;24.50;55.78
63399;BME280;49533;-34.520;150.798;2024-03-29T00:59:12;101716.66;;;24.63;55.21
63399;BME280;49533;-34.520;150.798;2024-03-29T01:01:39;101734.78;;;24.80;55.75
63399;BME280;49533;-34.520;150.798;2024-03-29T01:04:06;101732.91;;;24.88;55.76
63399;BME280;49533;-34.520;150.798;2024-03-29T01:06:33;101735.72;;;24.91;55.73
63399;BME280;49533;-34.520;150.798;2024-03-29T01:09:00;101716.00;;;24.73;55.38
63399;BME280;49533;-34.520;150.798;2024-03-29T01:11:30;101737.38;;;24.96;55.44
63399;BME280;49533;-34.520;150.798;2024-03-29T01:13:57;101730.63;;;24.97;54.49
63399;BME280;49533;-34.520;150.798;2024-03-29T01:16:24;101725.06;;;24.97;55.24
63399;BME280;49533;-34.520;150.798;2024-03-29T01:18:51;101730.28;;;25.02;55.29
63399;BME280;49533;-34.520;150.798;2024-03-29T01:21:18;101592.88;;;24.13;53.74
63399;BME280;49533;-34.520;150.798;2024-03-29T01:23:45;101713.38;;;24.84;54.19
63399;BME280;49533;-34.520;150.798;2024-03-29T01:26:12;101718.56;;;24.86;53.63
63399;BME280;49533;-34.520;150.798;2024-03-29T01:28:40;101720.22;;;24.90;54.47
63399;BME280;49533;-34.520;150.798;2024-03-29T01:31:07;101716.72;;;24.97;54.56
63399;BME280;49533;-34.520;150.798;2024-03-29T01:33:35;101735.03;;;24.98;53.54
63399;BME280;49533;-34.520;150.798;2024-03-29T01:36:09;101700.25;;;24.85;54.11
63399;BME280;49533;-34.520;150.798;2024-03-29T01:38:36;101697.59;;;24.92;54.32
63399;BME280;49533;-34.520;150.798;2024-03-29T01:41:03;101704.84;;;25.00;53.92
63399;BME280;49533;-34.520;150.798;2024-03-29T01:43:30;101706.56;;;25.08;54.15
63399;BME280;49533;-34.520;150.798;2024-03-29T01:45:57;101689.03;;;25.08;53.35
63399;BME280;49533;-34.520;150.798;2024-03-29T01:48:26;101674.13;;;24.89;53.95
63399;BME280;49533;-34.520;150.798;2024-03-29T01:50:56;101692.66;;;25.08;53.49
63399;BME280;49533;-34.520;150.798;2024-03-29T01:53:24;101698.59;;;25.10;53.65
63399;BME280;49533;-34.520;150.798;2024-03-29T01:55:52;101672.22;;;24.97;53.61
63399;BME280;49533;-34.520;150.798;2024-03-29T01:58:21;101640.59;;;24.75;53.52
63399;BME280;49533;-34.520;150.798;2024-03-29T02:00:57;101690.59;;;25.05;53.05
63399;BME280;49533;-34.520;150.798;2024-03-29T02:03:24;101682.25;;;25.05;53.54
63399;BME280;49533;-34.520;150.798;2024-03-29T02:05:52;101684.38;;;25.15;53.67
63399;BME280;49533;-34.520;150.798;2024-03-29T02:08:19;101661.09;;;25.24;53.36
63399;BME280;49533;-34.520;150.798;2024-03-29T02:10:47;101671.81;;;25.25;53.09
63399;BME280;49533;-34.520;150.798;2024-03-29T02:13:14;101575.06;;;24.74;53.13
63399;BME280;49533;-34.520;150.798;2024-03-29T02:15:42;101637.09;;;25.15;53.09
63399;BME280;49533;-34.520;150.798;2024-03-29T02:18:09;101654.41;;;25.32;52.92
63399;BME280;49533;-34.520;150.798;2024-03-29T02:20:36;101621.94;;;25.09;53.11
63399;BME280;49533;-34.520;150.798;2024-03-29T02:23:07;101654.00;;;25.33;53.66
63399;BME280;49533;-34.520;150.798;2024-03-29T02:25:36;101654.84;;;25.34;53.17
63399;BME280;49533;-34.520;150.798;2024-03-29T02:28:03;101643.31;;;25.35;53.08
63399;BME280;49533;-34.520;150.798;2024-03-29T02:30:33;101585.69;;;24.99;53.34
63399;BME280;49533;-34.520;150.798;2024-03-29T02:33:01;101639.38;;;25.40;52.91
63399;BME280;49533;-34.520;150.798;2024-03-29T02:35:29;101635.41;;;25.41;52.93
63399;BME280;49533;-34.520;150.798;2024-03-29T02:37:57;101604.25;;;25.21;53.53
63399;BME280;49533;-34.520;150.798;2024-03-29T02:40:24;101611.50;;;25.33;53.37
63399;BME280;49533;-34.520;150.798;2024-03-29T02:42:51;101598.78;;;25.32;53.32
63399;BME280;49533;-34.520;150.798;2024-03-29T02:45:18;101599.91;;;25.27;52.77
63399;BME280;49533;-34.520;150.798;2024-03-29T02:47:45;101621.56;;;25.45;53.08
63399;BME280;49533;-34.520;150.798;2024-03-29T02:50:15;101611.22;;;25.45;53.16
63399;BME280;49533;-34.520;150.798;2024-03-29T02:52:42;101574.78;;;25.16;52.94
63399;BME280;49533;-34.520;150.798;2024-03-29T02:55:09;101614.84;;;25.49;52.91
63399;BME280;49533;-34.520;150.798;2024-03-29T02:57:40;101587.75;;;25.43;53.00
63399;BME280;49533;-34.520;150.798;2024-03-29T03:00:10;101601.41;;;25.58;53.02
63399;BME280;49533;-34.520;150.798;2024-03-29T03:02:38;101580.69;;;25.52;53.02
63399;BME280;49533;-34.520;150.798;2024-03-29T03:05:11;101599.88;;;25.65;52.62
63399;BME280;49533;-34.520;150.798;2024-03-29T03:07:38;101589.13;;;25.67;52.66
63399;BME280;49533;-34.520;150.798;2024-03-29T03:10:23;101588.75;;;25.68;51.29
63399;BME280;49533;-34.520;150.798;2024-03-29T03:13:08;101578.78;;;25.64;51.90
63399;BME280;49533;-34.520;150.798;2024-03-29T03:15:35;101583.97;;;25.65;51.23
63399;BME280;49533;-34.520;150.798;2024-03-29T03:18:02;101521.66;;;25.29;52.71
63399;BME280;49533;-34.520;150.798;2024-03-29T03:20:29;101415.78;;;24.63;52.09
63399;BME280;49533;-34.520;150.798;2024-03-29T03:22:58;101586.34;;;25.67;51.77
63399;BME280;49533;-34.520;150.798;2024-03-29T03:25:28;101510.06;;;25.20;52.10
63399;BME280;49533;-34.520;150.798;2024-03-29T03:27:56;101577.25;;;25.70;52.42
63399;BME280;49533;-34.520;150.798;2024-03-29T03:30:23;101507.34;;;25.30;52.30
63399;BME280;49533;-34.520;150.798;2024-03-29T03:32:50;101566.91;;;25.70;51.51
63399;BME280;49533;-34.520;150.798;2024-03-29T03:35:17;101537.69;;;25.46;52.54
63399;BME280;49533;-34.520;150.798;2024-03-29T03:37:44;101575.25;;;25.70;52.50
63399;BME280;49533;-34.520;150.798;2024-03-29T03:40:11;101570.50;;;25.71;51.50
63399;BME280;49533;-34.520;150.798;2024-03-29T03:42:38;101564.13;;;25.70;52.31
63399;BME280;49533;-34.520;150.798;2024-03-29T03:45:06;101566.94;;;25.74;51.62
63399;BME280;49533;-34.520;150.798;2024-03-29T03:47:33;101503.00;;;25.33;51.49
63399;BME280;49533;-34.520;150.798;2024-03-29T03:50:01;101568.09;;;25.69;51.82
63399;BME280;49533;-34.520;150.798;2024-03-29T03:52:28;101551.34;;;25.62;50.48
63399;BME280;49533;-34.520;150.798;2024-03-29T03:54:55;101525.31;;;25.36;50.87
63399;BME280;49533;-34.520;150.798;2024-03-29T03:57:22;101508.97;;;25.31;51.29
63399;BME280;49533;-34.520;150.798;2024-03-29T03:59:50;101552.97;;;25.67;50.76
63399;BME280;49533;-34.520;150.798;2024-03-29T04:02:17;101490.28;;;25.32;50.55
63399;BME280;49533;-34.520;150.798;2024-03-29T04:04:47;101524.25;;;25.52;50.62
63399;BME280;49533;-34.520;150.798;2024-03-29T04:07:14;101546.19;;;25.64;50.87
63399;BME280;49533;-34.520;150.798;2024-03-29T04:09:41;101447.47;;;24.99;50.60
63399;BME280;49533;-34.520;150.798;2024-03-29T04:12:11;101529.34;;;25.46;50.83
63399;BME280;49533;-34.520;150.798;2024-03-29T04:14:38;101513.78;;;25.38;50.69
63399;BME280;49533;-34.520;150.798;2024-03-29T04:17:05;101543.78;;;25.63;50.48
63399;BME280;49533;-34.520;150.798;2024-03-29T04:19:32;101543.38;;;25.60;51.12
63399;BME280;49533;-34.520;150.798;2024-03-29T04:21:59;101497.88;;;25.35;51.38
63399;BME280;49533;-34.520;150.798;2024-03-29T04:24:28;101487.50;;;25.32;51.42
63399;BME280;49533;-34.520;150.798;2024-03-29T04:26:56;101538.66;;;25.65;50.91
63399;BME280;49533;-34.520;150.798;2024-03-29T04:29:23;101535.03;;;25.60;50.45
63399;BME280;49533;-34.520;150.798;2024-03-29T04:31:50;101517.00;;;25.44;50.65
63399;BME280;49533;-34.520;150.798;2024-03-29T04:34:17;101483.09;;;25.24;50.90
63399;BME280;49533;-34.520;150.798;2024-03-29T04:36:44;101517.03;;;25.47;51.20
63399;BME280;49533;-34.520;150.798;2024-03-29T04:39:11;101532.66;;;25.63;51.23
63399;BME280;49533;-34.520;150.798;2024-03-29T04:41:38;101539.41;;;25.62;50.40
63399;BME280;49533;-34.520;150.798;2024-03-29T04:44:06;101506.69;;;25.44;50.00
63399;BME280;49533;-34.520;150.798;2024-03-29T04:46:34;101503.50;;;25.42;50.29
63399;BME280;49533;-34.520;150.798;2024-03-29T04:49:01;101518.63;;;25.48;50.82
63399;BME280;49533;-34.520;150.798;2024-03-29T04:51:28;101523.78;;;25.46;49.87
63399;BME280;49533;-34.520;150.798;2024-03-29T04:53:55;101523.41;;;25.51;50.00
63399;BME280;49533;-34.520;150.798;2024-03-29T04:56:22;101464.59;;;25.05;50.00
63399;BME280;49533;-34.520;150.798;2024-03-29T04:58:49;101534.16;;;25.49;50.21
63399;BME280;49533;-34.520;150.798;2024-03-29T05:01:17;101532.53;;;25.48;50.51
63399;BME280;49533;-34.520;150.798;2024-03-29T05:03:44;101525.75;;;25.42;50.35
63399;BME280;49533;-34.520;150.798;2024-03-29T05:06:11;101528.09;;;25.40;50.23
63399;BME280;49533;-34.520;150.798;2024-03-29T05:08:38;101524.13;;;25.41;50.09
63399;BME280;49533;-34.520;150.798;2024-03-29T05:11:06;101530.13;;;25.43;50.63
63399;BME280;49533;-34.520;150.798;2024-03-29T05:13:34;101475.41;;;25.13;50.53
63399;BME280;49533;-34.520;150.798;2024-03-29T05:16:01;101506.53;;;25.26;50.67
63399;BME280;49533;-34.520;150.798;2024-03-29T05:18:28;101516.59;;;25.42;50.19
63399;BME280;49533;-34.520;150.798;2024-03-29T05:20:55;101518.56;;;25.41;50.82
63399;BME280;49533;-34.520;150.798;2024-03-29T05:23:22;101521.34;;;25.41;50.32
63399;BME280;49533;-34.520;150.798;2024-03-29T05:25:49;101522.53;;;25.40;50.31
63399;BME280;49533;-34.520;150.798;2024-03-29T05:28:16;101517.41;;;25.42;49.65
63399;BME280;49533;-34.520;150.798;2024-03-29T05:30:43;101519.75;;;25.40;50.37
63399;BME280;49533;-34.520;150.798;2024-03-29T05:33:10;101350.75;;;24.34;50.35
63399;BME280;49533;-34.520;150.798;2024-03-29T05:35:37;101463.47;;;25.13;49.98
63399;BME280;49533;-34.520;150.798;2024-03-29T05:38:05;101493.00;;;25.21;50.26
63399;BME280;49533;-34.520;150.798;2024-03-29T05:40:33;101513.78;;;25.38;50.13
63399;BME280;49533;-34.520;150.798;2024-03-29T05:43:00;101510.94;;;25.31;49.65
63399;BME280;49533;-34.520;150.798;2024-03-29T05:45:28;101519.31;;;25.34;49.29
63399;BME280;49533;-34.520;150.798;2024-03-29T05:47:57;101522.88;;;25.31;49.80
63399;BME280;49533;-34.520;150.798;2024-03-29T05:50:25;101528.03;;;25.33;49.85
63399;BME280;49533;-34.520;150.798;2024-03-29T05:52:52;101525.66;;;25.31;49.59
63399;BME280;49533;-34.520;150.798;2024-03-29T05:55:20;101520.06;;;25.28;49.22
63399;BME280;49533;-34.520;150.798;2024-03-29T05:57:47;101523.59;;;25.25;49.63
63399;BME280;49533;-34.520;150.798;2024-03-29T06:00:15;101523.19;;;25.23;50.07
63399;BME280;49533;-34.520;150.798;2024-03-29T06:02:43;101519.19;;;25.20;50.36
63399;BME280;49533;-34.520;150.798;2024-03-29T06:05:14;101537.50;;;25.21;49.82
63399;BME280;49533;-34.520;150.798;2024-03-29T06:07:41;101513.69;;;25.24;49.89
63399;BME280;49533;-34.520;150.798;2024-03-29T06:10:08;101522.38;;;25.22;49.94
63399;BME280;49533;-34.520;150.798;2024-03-29T06:12:36;101442.06;;;24.72;49.99
63399;BME280;49533;-34.520;150.798;2024-03-29T06:15:06;101511.25;;;25.19;50.25
63399;BME280;49533;-34.520;150.798;2024-03-29T06:17:52;101468.06;;;24.91;49.51
63399;BME280;49533;-34.520;150.798;2024-03-29T06:20:19;101508.78;;;25.13;49.42
63399;BME280;49533;-34.520;150.798;2024-03-29T06:22:46;101512.72;;;25.12;49.69
63399;BME280;49533;-34.520;150.798;2024-03-29T06:25:13;101502.38;;;25.09;50.37
63399;BME280;49533;-34.520;150.798;2024-03-29T06:27:41;101505.50;;;25.04;50.49
63399;BME280;49533;-34.520;150.798;2024-03-29T06:30:14;101513.47;;;25.06;50.54
63399;BME280;49533;-34.520;150.798;2024-03-29T06:32:45;101475.06;;;24.78;50.32
63399;BME280;49533;-34.520;150.798;2024-03-29T06:35:15;101493.09;;;24.94;50.17
63399;BME280;49533;-34.520;150.798;2024-03-29T06:37:42;101511.88;;;25.05;50.74
63399;BME280;49533;-34.520;150.798;2024-03-29T06:40:09;101466.31;;;24.76;50.06
63399;BME280;49533;-34.520;150.798;2024-03-29T06:42:37;101514.22;;;25.03;50.01
63399;BME280;49533;-34.520;150.798;2024-03-29T06:45:05;101510.22;;;25.00;49.98
63399;BME280;49533;-34.520;150.798;2024-03-29T06:47:33;101502.91;;;24.85;50.72
63399;BME280;49533;-34.520;150.798;2024-03-29T06:50:00;101459.81;;;24.61;50.92
63399;BME280;49533;-34.520;150.798;2024-03-29T06:52:27;101520.56;;;25.00;50.75
63399;BME280;49533;-34.520;150.798;2024-03-29T06:54:54;101462.31;;;24.73;50.82
63399;BME280;49533;-34.520;150.798;2024-03-29T06:57:22;101521.47;;;25.11;51.05
63399;BME280;49533;-34.520;150.798;2024-03-29T06:59:52;101530.63;;;25.15;50.60
63399;BME280;49533;-34.520;150.798;2024-03-29T07:02:19;101528.72;;;25.19;50.58
63399;BME280;49533;-34.520;150.798;2024-03-29T07:04:46;101478.78;;;24.92;50.78
63399;BME280;49533;-34.520;150.798;2024-03-29T07:07:13;101444.81;;;24.69;51.03
63399;BME280;49533;-34.520;150.798;2024-03-29T07:09:40;101527.19;;;25.25;50.53
63399;BME280;49533;-34.520;150.798;2024-03-29T07:12:07;101526.81;;;25.27;50.66
63399;BME280;49533;-34.520;150.798;2024-03-29T07:14:35;101526.41;;;25.28;50.79
63399;BME280;49533;-34.520;150.798;2024-03-29T07:17:02;101527.22;;;25.29;50.81
63399;BME280;49533;-34.520;150.798;2024-03-29T07:19:29;101528.81;;;25.30;50.96
63399;BME280;49533;-34.520;150.798;2024-03-29T07:21:56;101557.41;;;25.30;50.62
63399;BME280;49533;-34.520;150.798;2024-03-29T07:24:23;101518.75;;;25.18;51.05
63399;BME280;49533;-34.520;150.798;2024-03-29T07:26:51;101528.44;;;25.31;50.63
63399;BME280;49533;-34.520;150.798;2024-03-29T07:29:18;101475.66;;;24.98;51.00
63399;BME280;49533;-34.520;150.798;2024-03-29T07:31:48;101529.66;;;25.34;50.23
63399;BME280;49533;-34.520;150.798;2024-03-29T07:34:15;101527.66;;;25.34;50.51
63399;BME280;49533;-34.520;150.798;2024-03-29T07:36:42;101504.84;;;25.18;50.68
63399;BME280;49533;-34.520;150.798;2024-03-29T07:39:09;101493.63;;;25.07;50.53
63399;BME280;49533;-34.520;150.798;2024-03-29T07:41:36;101508.38;;;25.15;50.43
63399;BME280;49533;-34.520;150.798;2024-03-29T07:44:04;101539.59;;;25.35;50.60
63399;BME280;49533;-34.520;150.798;2024-03-29T07:46:34;101541.19;;;25.36;50.89
63399;BME280;49533;-34.520;150.798;2024-03-29T07:49:01;101542.38;;;25.35;50.33
63399;BME280;49533;-34.520;150.798;2024-03-29T07:51:29;101543.56;;;25.34;50.04
63399;BME280;49533;-34.520;150.798;2024-03-29T07:53:57;101508.72;;;25.10;50.46
63399;BME280;49533;-34.520;150.798;2024-03-29T07:56:24;101547.16;;;25.34;50.06
63399;BME280;49533;-34.520;150.798;2024-03-29T07:58:54;101551.91;;;25.34;50.37
63399;BME280;49533;-34.520;150.798;2024-03-29T08:01:22;101551.91;;;25.34;50.08
63399;BME280;49533;-34.520;150.798;2024-03-29T08:03:53;101545.94;;;25.32;49.97
63399;BME280;49533;-34.520;150.798;2024-03-29T08:06:20;101540.72;;;25.27;50.04
63399;BME280;49533;-34.520;150.798;2024-03-29T08:08:52;101551.50;;;25.32;50.53
63399;BME280;49533;-34.520;150.798;2024-03-29T08:11:19;101359.66;;;24.13;49.99
63399;BME280;49533;-34.520;150.798;2024-03-29T08:13:46;101507.06;;;25.02;50.47
63399;BME280;49533;-34.520;150.798;2024-03-29T08:16:13;101509.50;;;25.07;50.41
63399;BME280;49533;-34.520;150.798;2024-03-29T08:18:45;101546.28;;;25.30;50.66
63399;BME280;49533;-34.520;150.798;2024-03-29T08:21:13;101497.50;;;24.99;50.63
63399;BME280;49533;-34.520;150.798;2024-03-29T08:23:41;101549.47;;;25.29;50.79
63399;BME280;49533;-34.520;150.798;2024-03-29T08:26:13;101560.97;;;25.27;50.51
63399;BME280;49533;-34.520;150.798;2024-03-29T08:28:40;101447.91;;;24.60;50.47
63399;BME280;49533;-34.520;150.798;2024-03-29T08:31:07;101562.97;;;25.27;50.65
63399;BME280;49533;-34.520;150.798;2024-03-29T08:33:37;101535.53;;;24.88;50.53
63399;BME280;49533;-34.520;150.798;2024-03-29T08:36:07;101563.75;;;25.24;50.78
63399;BME280;49533;-34.520;150.798;2024-03-29T08:38:35;101542.91;;;25.10;50.80
63399;BME280;49533;-34.520;150.798;2024-03-29T08:41:03;101509.69;;;24.87;50.80
63399;BME280;49533;-34.520;150.798;2024-03-29T08:43:30;101564.47;;;25.21;50.65
63399;BME280;49533;-34.520;150.798;2024-03-29T08:45:57;101530.03;;;24.95;50.48
63399;BME280;49533;-34.520;150.798;2024-03-29T08:48:27;101537.66;;;25.02;50.37
63399;BME280;49533;-34.520;150.798;2024-03-29T08:50:54;101431.22;;;24.26;50.64
63399;BME280;49533;-34.520;150.798;2024-03-29T08:53:21;101565.97;;;25.14;50.92
63399;BME280;49533;-34.520;150.798;2024-03-29T08:55:49;101563.56;;;25.09;50.54
63399;BME280;49533;-34.520;150.798;2024-03-29T08:58:16;101573.53;;;25.14;50.35
63399;BME280;49533;-34.520;150.798;2024-03-29T09:00:53;101559.47;;;25.00;50.78
63399;BME280;49533;-34.520;150.798;2024-03-29T09:03:24;101583.03;;;25.13;50.68
63399;BME280;49533;-34.520;150.798;2024-03-29T09:05:51;101561.81;;;24.98;51.19
63399;BME280;49533;-34.520;150.798;2024-03-29T09:08:19;101549.00;;;24.86;50.52
63399;BME280;49533;-34.520;150.798;2024-03-29T09:10:46;101598.50;;;25.10;50.65
63399;BME280;49533;-34.520;150.798;2024-03-29T09:13:13;101594.50;;;25.08;50.82
63399;BME280;49533;-34.520;150.798;2024-03-29T09:15:40;101592.56;;;25.08;51.13
63399;BME280;49533;-34.520;150.798;2024-03-29T09:18:08;101564.50;;;24.87;50.94
63399;BME280;49533;-34.520;150.798;2024-03-29T09:21:01;101592.13;;;25.06;50.82
63399;BME280;49533;-34.520;150.798;2024-03-29T09:23:28;101596.88;;;25.06;50.62
63399;BME280;49533;-34.520;150.798;2024-03-29T09:25:56;101592.88;;;25.03;50.75
63399;BME280;49533;-34.520;150.798;2024-03-29T09:28:24;101577.22;;;24.88;50.90
63399;BME280;49533;-34.520;150.798;2024-03-29T09:30:57;101603.59;;;25.01;50.99
63399;BME280;49533;-34.520;150.798;2024-03-29T09:33:28;101464.34;;;24.08;50.65
63399;BME280;49533;-34.520;150.798;2024-03-29T09:35:55;101604.75;;;25.00;50.93
63399;BME280;49533;-34.520;150.798;2024-03-29T09:38:26;101592.34;;;24.90;50.72
63399;BME280;49533;-34.520;150.798;2024-03-29T09:41:14;101535.06;;;24.48;50.44
63399;BME280;49533;-34.520;150.798;2024-03-29T09:43:44;101560.19;;;24.59;50.72
63399;BME280;49533;-34.520;150.798;2024-03-29T09:46:12;101519.75;;;24.32;50.72
63399;BME280;49533;-34.520;150.798;2024-03-29T09:48:43;101616.59;;;24.93;50.79
63399;BME280;49533;-34.520;150.798;2024-03-29T09:51:13;101617.41;;;24.94;51.17
63399;BME280;49533;-34.520;150.798;2024-03-29T09:53:43;101559.78;;;24.57;51.18
63399;BME280;49533;-34.520;150.798;2024-03-29T09:56:10;101622.94;;;24.90;50.98
63399;BME280;49533;-34.520;150.798;2024-03-29T09:58:38;101551.31;;;24.46;50.92
63399;BME280;49533;-34.520;150.798;2024-03-29T10:01:08;101620.09;;;24.87;51.25
63399;BME280;49533;-34.520;150.798;2024-03-29T10:03:47;101630.03;;;24.88;51.23
63399;BME280;49533;-34.520;150.798;2024-03-29T10:06:15;101612.84;;;24.79;50.91
63399;BME280;49533;-34.520;150.798;2024-03-29T10:08:45;101619.63;;;24.81;50.95
63399;BME280;49533;-34.520;150.798;2024-03-29T10:11:14;101620.41;;;24.82;51.10
63399;BME280;49533;-34.520;150.798;2024-03-29T10:13:45;101463.50;;;23.78;51.00
63399;BME280;49533;-34.520;150.798;2024-03-29T10:16:13;101635.50;;;24.81;51.52
63399;BME280;49533;-34.520;150.798;2024-03-29T10:18:47;101636.28;;;24.78;51.16
63399;BME280;49533;-34.520;150.798;2024-03-29T10:21:14;101634.66;;;24.77;50.86
63399;BME280;49533;-34.520;150.798;2024-03-29T10:23:41;101631.84;;;24.73;51.50
63399;BME280;49533;-34.520;150.798;2024-03-29T10:26:09;101610.47;;;24.47;51.31
63399;BME280;49533;-34.520;150.798;2024-03-29T10:28:38;101636.19;;;24.70;51.10
63399;BME280;49533;-34.520;150.798;2024-03-29T10:31:05;101638.16;;;24.70;51.28
63399;BME280;49533;-34.520;150.798;2024-03-29T10:33:34;101637.34;;;24.69;51.35
63399;BME280;49533;-34.520;150.798;2024-03-29T10:36:03;101619.28;;;24.56;51.42
63399;BME280;49533;-34.520;150.798;2024-03-29T10:38:35;101639.28;;;24.65;51.35
63399;BME280;49533;-34.520;150.798;2024-03-29T10:41:04;101644.03;;;24.65;51.40
63399;BME280;49533;-34.520;150.798;2024-03-29T10:43:33;101624.03;;;24.52;51.76
63399;BME280;49533;-34.520;150.798;2024-03-29T10:46:01;101635.63;;;24.61;51.63
63399;BME280;49533;-34.520;150.798;2024-03-29T10:48:31;101553.50;;;24.03;51.47
63399;BME280;49533;-34.520;150.798;2024-03-29T10:51:03;101639.19;;;24.58;51.53
63399;BME280;49533;-34.520;150.798;2024-03-29T10:53:30;101634.31;;;24.51;51.63
63399;BME280;49533;-34.520;150.798;2024-03-29T10:55:58;101627.97;;;24.51;51.58
63399;BME280;49533;-34.520;150.798;2024-03-29T10:58:30;101631.78;;;24.43;51.66
63399;BME280;49533;-34.520;150.798;2024-03-29T11:00:58;101641.84;;;24.51;51.59
63399;BME280;49533;-34.520;150.798;2024-03-29T11:03:54;101644.63;;;24.51;51.64
63399;BME280;49533;-34.520;150.798;2024-03-29T11:06:25;101637.84;;;24.48;51.31
63399;BME280;49533;-34.520;150.798;2024-03-29T11:08:54;101630.53;;;24.37;51.41
63399;BME280;49533;-34.520;150.798;2024-03-29T11:11:26;101641.72;;;24.44;52.14
63399;BME280;49533;-34.520;150.798;2024-03-29T11:14:07;101586.41;;;24.05;52.00
63399;BME280;49533;-34.520;150.798;2024-03-29T11:16:35;101594.84;;;24.12;51.87
63399;BME280;49533;-34.520;150.798;2024-03-29T11:19:02;101646.47;;;24.43;51.85
63399;BME280;49533;-34.520;150.798;2024-03-29T11:21:32;101643.25;;;24.41;51.51
63399;BME280;49533;-34.520;150.798;2024-03-29T11:24:04;101648.78;;;24.38;51.72
63399;BME280;49533;-34.520;150.798;2024-03-29T11:26:31;101646.44;;;24.40;51.84
63399;BME280;49533;-34.520;150.798;2024-03-29T11:28:59;101648.78;;;24.38;51.85
63399;BME280;49533;-34.520;150.798;2024-03-29T11:31:27;101639.59;;;24.34;51.93
63399;BME280;49533;-34.520;150.798;2024-03-29T11:33:57;101600.69;;;24.03;52.02
63399;BME280;49533;-34.520;150.798;2024-03-29T11:36:28;101641.22;;;24.35;51.87
63399;BME280;49533;-34.520;150.798;2024-03-29T11:38:58;101654.66;;;24.33;51.73
63399;BME280;49533;-34.520;150.798;2024-03-29T11:41:28;101653.06;;;24.32;51.87
63399;BME280;49533;-34.520;150.798;2024-03-29T11:43:56;101653.06;;;24.32;51.65
63399;BME280;49533;-34.520;150.798;2024-03-29T11:46:24;101576.59;;;23.84;51.85
63399;BME280;49533;-34.520;150.798;2024-03-29T11:48:51;101648.66;;;24.30;51.70
63399;BME280;49533;-34.520;150.798;2024-03-29T11:51:21;101653.00;;;24.28;51.80
63399;BME280;49533;-34.520;150.798;2024-03-29T11:53:50;101635.44;;;24.20;51.81
63399;BME280;49533;-34.520;150.798;2024-03-29T11:56:19;101605.31;;;23.96;51.64
63399;BME280;49533;-34.520;150.798;2024-03-29T11:58:47;101647.41;;;24.24;51.83
63399;BME280;49533;-34.520;150.798;2024-03-29T12:01:17;101644.97;;;24.23;51.73
63399;BME280;49533;-34.520;150.798;2024-03-29T12:03:45;101641.78;;;24.21;51.97
63399;BME280;49533;-34.520;150.798;2024-03-29T12:06:14;101601.00;;;23.98;51.73
63399;BME280;49533;-34.520;150.798;2024-03-29T12:08:43;101618.66;;;24.13;51.64
63399;BME280;49533;-34.520;150.798;2024-03-29T12:11:11;101634.19;;;24.18;51.79
63399;BME280;49533;-34.520;150.798;2024-03-29T12:13:38;101632.22;;;24.18;51.84
63399;BME280;49533;-34.520;150.798;2024-03-29T12:16:07;101627.06;;;24.17;51.54
63399;BME280;49533;-34.520;150.798;2024-03-29T12:18:35;101625.81;;;24.14;52.16
63399;BME280;49533;-34.520;150.798;2024-03-29T12:21:02;101568.13;;;23.77;52.15
63399;BME280;49533;-34.520;150.798;2024-03-29T12:23:30;101617.06;;;24.12;51.75
63399;BME280;49533;-34.520;150.798;2024-03-29T12:25:58;101546.44;;;23.60;51.76